sensor_id;sensor_type;location;lat;lon;timestamp;temperature;humidity
3037;DHT22;1528;52.550;13.408;2022-08-04T00:01:00;25.40;10.00
3037;DHT22;1528;52.550;13.408;2022-08-04T00:03:54;25.40;10.00
3037;DHT22;1528;52.550;13.408;2022-08-04T00:06:55;25.30;10.00
3037;DHT22;1528;52.550;13.408;2022-08-04T00:09:51;25.30;10.00
3037;DHT22;1528;52.550;13.408;2022-08-04T00:12:47;25.30;10.00
3037;DHT22;1528;52.550;13.408;2022-08-04T00:15:37;25.20;10.10
3037;DHT22;1528;52.550;13.408;2022-08-04T00:18:28;25.20;10.20
3037;DHT22;1528;52.550;13.408;2022-08-04T00:21:21;25.20;10.30
3037;DHT22;1528;52.550;13.408;2022-08-04T00:24:12;25.20;10.40
3037;DHT22;1528;52.550;13.408;2022-08-04T00:27:01;25.20;10.30
3037;DHT22;1528;52.550;13.408;2022-08-04T00:29:51;25.20;10.60
3037;DHT22;1528;52.550;13.408;2022-08-04T00:32:40;25.20;10.60
3037;DHT22;1528;52.550;13.408;2022-08-04T00:35:29;25.10;11.30
3037;DHT22;1528;52.550;13.408;2022-08-04T00:38:18;25.10;11.00
3037;DHT22;1528;52.550;13.408;2022-08-04T00:41:13;25.10;10.70
3037;DHT22;1528;52.550;13.408;2022-08-04T00:44:14;25.10;10.70
3037;DHT22;1528;52.550;13.408;2022-08-04T00:47:23;25.00;11.00
3037;DHT22;1528;52.550;13.408;2022-08-04T00:50:21;25.00;11.00
3037;DHT22;1528;52.550;13.408;2022-08-04T00:53:16;25.00;11.20
3037;DHT22;1528;52.550;13.408;2022-08-04T00:56:28;25.00;11.20
3037;DHT22;1528;52.550;13.408;2022-08-04T00:59:36;24.90;11.20
3037;DHT22;1528;52.550;13.408;2022-08-04T01:02:37;24.90;11.40
3037;DHT22;1528;52.550;13.408;2022-08-04T01:05:33;24.90;11.50
3037;DHT22;1528;52.550;13.408;2022-08-04T01:08:37;24.90;11.40
3037;DHT22;1528;52.550;13.408;2022-08-04T01:11:35;24.90;11.70
3037;DHT22;1528;52.550;13.408;2022-08-04T01:14:43;24.80;11.80
3037;DHT22;1528;52.550;13.408;2022-08-04T01:17:46;24.80;11.80
3037;DHT22;1528;52.550;13.408;2022-08-04T01:20:52;24.80;11.90
3037;DHT22;1528;52.550;13.408;2022-08-04T01:24:06;24.70;11.90
3037;DHT22;1528;52.550;13.408;2022-08-04T01:27:00;24.70;11.70
3037;DHT22;1528;52.550;13.408;2022-08-04T01:29:55;24.70;11.80
3037;DHT22;1528;52.550;13.408;2022-08-04T01:32:47;24.70;11.80
3037;DHT22;1528;52.550;13.408;2022-08-04T01:35:40;24.70;12.20
3037;DHT22;1528;52.550;13.408;2022-08-04T01:38:36;24.60;12.00
3037;DHT22;1528;52.550;13.408;2022-08-04T01:41:25;24.60;12.30
3037;DHT22;1528;52.550;13.408;2022-08-04T01:44:14;24.60;12.40
3037;DHT22;1528;52.550;13.408;2022-08-04T01:47:07;24.60;12.50
3037;DHT22;1528;52.550;13.408;2022-08-04T01:50:03;24.50;12.50
3037;DHT22;1528;52.550;13.408;2022-08-04T01:52:53;24.50;12.60
3037;DHT22;1528;52.550;13.408;2022-08-04T01:55:41;24.50;12.60
3037;DHT22;1528;52.550;13.408;2022-08-04T01:58:31;24.50;12.80
3037;DHT22;1528;52.550;13.408;2022-08-04T02:01:20;24.40;12.80
3037;DHT22;1528;52.550;13.408;2022-08-04T02:04:13;24.50;12.80
3037;DHT22;1528;52.550;13.408;2022-08-04T02:07:13;24.40;12.80
3037;DHT22;1528;52.550;13.408;2022-08-04T02:10:06;24.40;12.90
3037;DHT22;1528;52.550;13.408;2022-08-04T02:13:02;24.40;13.00
3037;DHT22;1528;52.550;13.408;2022-08-04T02:16:01;24.40;12.90
3037;DHT22;1528;52.550;13.408;2022-08-04T02:18:59;24.30;13.00
3037;DHT22;1528;52.550;13.408;2022-08-04T02:21:56;24.30;12.90
3037;DHT22;1528;52.550;13.408;2022-08-04T02:24:48;24.20;13.10
3037;DHT22;1528;52.550;13.408;2022-08-04T02:31:15;24.20;13.20
3037;DHT22;1528;52.550;13.408;2022-08-04T02:34:07;24.20;13.30
3037;DHT22;1528;52.550;13.408;2022-08-04T02:36:58;24.20;13.30
3037;DHT22;1528;52.550;13.408;2022-08-04T02:39:52;24.20;13.50
3037;DHT22;1528;52.550;13.408;2022-08-04T02:42:39;24.20;13.40
3037;DHT22;1528;52.550;13.408;2022-08-04T02:45:28;24.20;13.50
3037;DHT22;1528;52.550;13.408;2022-08-04T02:48:19;24.10;13.70
3037;DHT22;1528;52.550;13.408;2022-08-04T02:51:11;24.20;13.40
3037;DHT22;1528;52.550;13.408;2022-08-04T02:54:04;24.20;13.30
3037;DHT22;1528;52.550;13.408;2022-08-04T02:56:52;24.20;13.40
3037;DHT22;1528;52.550;13.408;2022-08-04T02:59:57;24.10;13.30
3037;DHT22;1528;52.550;13.408;2022-08-04T03:02:57;24.10;13.30
3037;DHT22;1528;52.550;13.408;2022-08-04T03:06:06;24.10;13.30
3037;DHT22;1528;52.550;13.408;2022-08-04T03:09:26;24.10;13.30
3037;DHT22;1528;52.550;13.408;2022-08-04T03:16:02;23.90;13.50
3037;DHT22;1528;52.550;13.408;2022-08-04T03:19:25;23.90;13.60
3037;DHT22;1528;52.550;13.408;2022-08-04T03:22:37;23.80;13.60
3037;DHT22;1528;52.550;13.408;2022-08-04T03:25:51;23.80;13.70
3037;DHT22;1528;52.550;13.408;2022-08-04T03:32:56;23.70;13.80
3037;DHT22;1528;52.550;13.408;2022-08-04T03:36:16;23.70;13.80
3037;DHT22;1528;52.550;13.408;2022-08-04T03:39:37;23.70;14.00
3037;DHT22;1528;52.550;13.408;2022-08-04T03:42:44;23.70;14.00
3037;DHT22;1528;52.550;13.408;2022-08-04T03:46:06;23.70;14.10
3037;DHT22;1528;52.550;13.408;2022-08-04T03:56:25;23.70;14.20
3037;DHT22;1528;52.550;13.408;2022-08-04T03:59:39;23.60;14.30
3037;DHT22;1528;52.550;13.408;2022-08-04T04:02:59;23.60;14.50
3037;DHT22;1528;52.550;13.408;2022-08-04T04:19:35;23.60;14.70
3037;DHT22;1528;52.550;13.408;2022-08-04T04:22:32;23.60;14.50
3037;DHT22;1528;52.550;13.408;2022-08-04T04:25:34;23.60;14.50
3037;DHT22;1528;52.550;13.408;2022-08-04T04:28:47;23.70;15.20
3037;DHT22;1528;52.550;13.408;2022-08-04T04:32:03;23.60;14.50
3037;DHT22;1528;52.550;13.408;2022-08-04T04:35:13;23.60;14.40
3037;DHT22;1528;52.550;13.408;2022-08-04T04:41:56;23.80;14.50
3037;DHT22;1528;52.550;13.408;2022-08-04T04:45:15;23.80;14.40
3037;DHT22;1528;52.550;13.408;2022-08-04T04:48:11;23.70;14.30
3037;DHT22;1528;52.550;13.408;2022-08-04T04:51:09;23.80;14.40
3037;DHT22;1528;52.550;13.408;2022-08-04T04:54:03;23.80;14.20
3037;DHT22;1528;52.550;13.408;2022-08-04T04:57:02;23.90;14.30
3037;DHT22;1528;52.550;13.408;2022-08-04T04:59:56;23.90;14.30
3037;DHT22;1528;52.550;13.408;2022-08-04T05:03:17;23.90;14.30
3037;DHT22;1528;52.550;13.408;2022-08-04T05:06:28;23.90;14.40
3037;DHT22;1528;52.550;13.408;2022-08-04T05:09:33;24.00;14.40
3037;DHT22;1528;52.550;13.408;2022-08-04T05:12:35;24.00;14.30
3037;DHT22;1528;52.550;13.408;2022-08-04T05:15:28;24.10;14.50
3037;DHT22;1528;52.550;13.408;2022-08-04T05:18:23;24.10;14.50
3037;DHT22;1528;52.550;13.408;2022-08-04T05:21:30;24.10;14.30
3037;DHT22;1528;52.550;13.408;2022-08-04T05:24:21;24.20;14.30
3037;DHT22;1528;52.550;13.408;2022-08-04T05:27:16;24.20;14.40
3037;DHT22;1528;52.550;13.408;2022-08-04T05:30:07;24.20;14.60
3037;DHT22;1528;52.550;13.408;2022-08-04T05:32:59;24.20;14.60
3037;DHT22;1528;52.550;13.408;2022-08-04T05:35:53;24.20;14.60
3037;DHT22;1528;52.550;13.408;2022-08-04T05:38:46;24.30;14.60
3037;DHT22;1528;52.550;13.408;2022-08-04T05:41:36;24.30;14.60
3037;DHT22;1528;52.550;13.408;2022-08-04T05:44:26;24.40;14.50
3037;DHT22;1528;52.550;13.408;2022-08-04T05:47:15;24.40;14.60
3037;DHT22;1528;52.550;13.408;2022-08-04T05:50:06;24.40;14.50
3037;DHT22;1528;52.550;13.408;2022-08-04T05:52:56;24.60;14.30
3037;DHT22;1528;52.550;13.408;2022-08-04T05:55:47;24.60;14.00
3037;DHT22;1528;52.550;13.408;2022-08-04T05:58:37;24.60;14.00
3037;DHT22;1528;52.550;13.408;2022-08-04T06:01:26;24.70;13.90
3037;DHT22;1528;52.550;13.408;2022-08-04T06:04:16;24.80;13.90
3037;DHT22;1528;52.550;13.408;2022-08-04T06:07:06;24.80;13.70
3037;DHT22;1528;52.550;13.408;2022-08-04T06:09:55;25.00;13.20
3037;DHT22;1528;52.550;13.408;2022-08-04T06:12:52;25.00;13.40
3037;DHT22;1528;52.550;13.408;2022-08-04T06:15:45;25.00;13.20
3037;DHT22;1528;52.550;13.408;2022-08-04T06:18:35;25.10;13.20
3037;DHT22;1528;52.550;13.408;2022-08-04T06:21:34;25.10;13.10
3037;DHT22;1528;52.550;13.408;2022-08-04T06:24:27;25.20;13.10
3037;DHT22;1528;52.550;13.408;2022-08-04T06:27:16;25.20;12.90
3037;DHT22;1528;52.550;13.408;2022-08-04T06:30:09;25.30;13.00
3037;DHT22;1528;52.550;13.408;2022-08-04T06:32:59;25.30;12.70
3037;DHT22;1528;52.550;13.408;2022-08-04T06:35:47;25.40;12.70
3037;DHT22;1528;52.550;13.408;2022-08-04T06:38:35;25.40;12.50
3037;DHT22;1528;52.550;13.408;2022-08-04T06:41:23;25.50;12.40
3037;DHT22;1528;52.550;13.408;2022-08-04T06:44:11;25.40;12.50
3037;DHT22;1528;52.550;13.408;2022-08-04T06:47:01;25.60;12.50
3037;DHT22;1528;52.550;13.408;2022-08-04T06:49:52;25.60;12.10
3037;DHT22;1528;52.550;13.408;2022-08-04T06:52:41;25.70;11.70
3037;DHT22;1528;52.550;13.408;2022-08-04T06:55:31;25.80;11.70
3037;DHT22;1528;52.550;13.408;2022-08-04T06:58:20;25.90;11.60
3037;DHT22;1528;52.550;13.408;2022-08-04T07:01:08;25.90;11.30
3037;DHT22;1528;52.550;13.408;2022-08-04T07:03:59;26.00;11.20
3037;DHT22;1528;52.550;13.408;2022-08-04T07:06:48;26.20;10.90
3037;DHT22;1528;52.550;13.408;2022-08-04T07:09:36;26.20;10.70
3037;DHT22;1528;52.550;13.408;2022-08-04T07:12:24;26.30;10.50
3037;DHT22;1528;52.550;13.408;2022-08-04T07:15:12;26.40;10.40
3037;DHT22;1528;52.550;13.408;2022-08-04T07:18:01;26.30;10.70
3037;DHT22;1528;52.550;13.408;2022-08-04T07:20:51;26.50;10.60
3037;DHT22;1528;52.550;13.408;2022-08-04T07:23:40;26.50;10.20
3037;DHT22;1528;52.550;13.408;2022-08-04T07:26:28;26.60;9.70
3037;DHT22;1528;52.550;13.408;2022-08-04T07:29:16;26.80;9.20
3037;DHT22;1528;52.550;13.408;2022-08-04T07:32:05;26.90;9.00
3037;DHT22;1528;52.550;13.408;2022-08-04T07:34:56;27.10;8.80
3037;DHT22;1528;52.550;13.408;2022-08-04T07:37:46;27.10;8.80
3037;DHT22;1528;52.550;13.408;2022-08-04T07:40:35;27.10;8.70
3037;DHT22;1528;52.550;13.408;2022-08-04T07:43:24;27.10;8.60
3037;DHT22;1528;52.550;13.408;2022-08-04T07:46:12;27.20;8.70
3037;DHT22;1528;52.550;13.408;2022-08-04T07:49:01;27.40;8.10
3037;DHT22;1528;52.550;13.408;2022-08-04T07:51:50;27.50;7.90
3037;DHT22;1528;52.550;13.408;2022-08-04T07:54:41;27.60;8.00
3037;DHT22;1528;52.550;13.408;2022-08-04T07:57:30;27.60;8.00
3037;DHT22;1528;52.550;13.408;2022-08-04T08:00:18;27.70;8.20
3037;DHT22;1528;52.550;13.408;2022-08-04T08:03:07;27.70;8.00
3037;DHT22;1528;52.550;13.408;2022-08-04T08:05:55;27.80;8.20
3037;DHT22;1528;52.550;13.408;2022-08-04T08:08:43;27.80;8.10
3037;DHT22;1528;52.550;13.408;2022-08-04T08:11:33;27.90;7.70
3037;DHT22;1528;52.550;13.408;2022-08-04T08:14:21;28.00;7.40
3037;DHT22;1528;52.550;13.408;2022-08-04T08:17:09;28.00;7.20
3037;DHT22;1528;52.550;13.408;2022-08-04T08:19:57;28.10;7.20
3037;DHT22;1528;52.550;13.408;2022-08-04T08:22:46;28.10;7.20
3037;DHT22;1528;52.550;13.408;2022-08-04T08:25:35;28.20;6.90
3037;DHT22;1528;52.550;13.408;2022-08-04T08:28:25;28.30;6.80
3037;DHT22;1528;52.550;13.408;2022-08-04T08:31:13;28.40;6.60
3037;DHT22;1528;52.550;13.408;2022-08-04T08:34:01;28.40;6.40
3037;DHT22;1528;52.550;13.408;2022-08-04T08:36:56;28.50;6.30
3037;DHT22;1528;52.550;13.408;2022-08-04T08:39:50;28.60;6.20
3037;DHT22;1528;52.550;13.408;2022-08-04T08:42:53;28.60;5.90
3037;DHT22;1528;52.550;13.408;2022-08-04T08:45:59;28.70;5.90
3037;DHT22;1528;52.550;13.408;2022-08-04T08:49:14;28.80;5.90
3037;DHT22;1528;52.550;13.408;2022-08-04T08:52:26;28.90;5.60
3037;DHT22;1528;52.550;13.408;2022-08-04T08:55:25;29.00;5.20
3037;DHT22;1528;52.550;13.408;2022-08-04T08:58:39;29.10;5.20
3037;DHT22;1528;52.550;13.408;2022-08-04T09:01:45;29.10;5.00
3037;DHT22;1528;52.550;13.408;2022-08-04T09:04:57;29.20;4.90
3037;DHT22;1528;52.550;13.408;2022-08-04T09:11:07;29.40;4.40
3037;DHT22;1528;52.550;13.408;2022-08-04T09:14:03;29.50;4.40
3037;DHT22;1528;52.550;13.408;2022-08-04T09:16:59;29.50;4.30
3037;DHT22;1528;52.550;13.408;2022-08-04T09:19:55;29.60;4.20
3037;DHT22;1528;52.550;13.408;2022-08-04T09:22:49;29.70;4.00
3037;DHT22;1528;52.550;13.408;2022-08-04T09:25:42;29.70;4.00
3037;DHT22;1528;52.550;13.408;2022-08-04T09:28:45;29.70;4.00
3037;DHT22;1528;52.550;13.408;2022-08-04T09:31:38;29.80;3.70
3037;DHT22;1528;52.550;13.408;2022-08-04T09:34:40;29.90;3.40
3037;DHT22;1528;52.550;13.408;2022-08-04T09:37:39;30.00;3.30
3037;DHT22;1528;52.550;13.408;2022-08-04T09:40:33;30.00;3.20
3037;DHT22;1528;52.550;13.408;2022-08-04T09:43:35;30.20;2.90
3037;DHT22;1528;52.550;13.408;2022-08-04T09:46:27;30.20;3.00
3037;DHT22;1528;52.550;13.408;2022-08-04T09:49:17;30.20;2.80
3037;DHT22;1528;52.550;13.408;2022-08-04T09:52:15;30.30;2.50
3037;DHT22;1528;52.550;13.408;2022-08-04T09:55:14;30.50;2.00
3037;DHT22;1528;52.550;13.408;2022-08-04T09:58:08;30.70;1.90
3037;DHT22;1528;52.550;13.408;2022-08-04T10:01:01;30.90;1.90
3037;DHT22;1528;52.550;13.408;2022-08-04T10:03:52;30.90;1.70
3037;DHT22;1528;52.550;13.408;2022-08-04T10:07:02;31.00;1.70
3037;DHT22;1528;52.550;13.408;2022-08-04T10:10:09;30.90;1.60
3037;DHT22;1528;52.550;13.408;2022-08-04T10:13:23;31.00;1.60
3037;DHT22;1528;52.550;13.408;2022-08-04T10:16:26;31.10;1.30
3037;DHT22;1528;52.550;13.408;2022-08-04T10:19:25;31.20;1.30
3037;DHT22;1528;52.550;13.408;2022-08-04T10:22:18;31.40;1.00
3037;DHT22;1528;52.550;13.408;2022-08-04T10:25:19;31.50;1.00
3037;DHT22;1528;52.550;13.408;2022-08-04T10:28:11;31.60;1.00
3037;DHT22;1528;52.550;13.408;2022-08-04T10:31:06;31.70;1.00
3037;DHT22;1528;52.550;13.408;2022-08-04T10:34:00;31.80;1.00
3037;DHT22;1528;52.550;13.408;2022-08-04T10:36:55;31.80;1.00
3037;DHT22;1528;52.550;13.408;2022-08-04T10:39:50;31.80;1.00
3037;DHT22;1528;52.550;13.408;2022-08-04T10:42:59;31.90;1.00
3037;DHT22;1528;52.550;13.408;2022-08-04T10:45:53;31.90;1.00
3037;DHT22;1528;52.550;13.408;2022-08-04T10:48:53;32.00;1.00
3037;DHT22;1528;52.550;13.408;2022-08-04T10:51:46;32.30;1.00
3037;DHT22;1528;52.550;13.408;2022-08-04T10:54:41;32.40;1.00
3037;DHT22;1528;52.550;13.408;2022-08-04T10:57:35;32.60;1.00
3037;DHT22;1528;52.550;13.408;2022-08-04T11:00:28;32.90;1.00
3037;DHT22;1528;52.550;13.408;2022-08-04T11:03:20;33.20;1.00
3037;DHT22;1528;52.550;13.408;2022-08-04T11:06:09;33.50;1.00
3037;DHT22;1528;52.550;13.408;2022-08-04T11:08:59;33.60;1.00
3037;DHT22;1528;52.550;13.408;2022-08-04T11:11:51;33.50;1.00
3037;DHT22;1528;52.550;13.408;2022-08-04T11:14:45;33.60;1.00
3037;DHT22;1528;52.550;13.408;2022-08-04T11:17:40;33.60;1.00
3037;DHT22;1528;52.550;13.408;2022-08-04T11:20:34;33.70;1.00
3037;DHT22;1528;52.550;13.408;2022-08-04T11:23:27;33.80;1.00
3037;DHT22;1528;52.550;13.408;2022-08-04T11:26:20;34.10;1.00
3037;DHT22;1528;52.550;13.408;2022-08-04T11:29:19;34.60;1.00
3037;DHT22;1528;52.550;13.408;2022-08-04T11:32:14;35.30;1.00
3037;DHT22;1528;52.550;13.408;2022-08-04T11:35:11;37.10;1.00
3037;DHT22;1528;52.550;13.408;2022-08-04T11:38:06;38.50;1.00
3037;DHT22;1528;52.550;13.408;2022-08-04T11:40:57;39.70;1.00
3037;DHT22;1528;52.550;13.408;2022-08-04T11:43:50;40.50;1.00
3037;DHT22;1528;52.550;13.408;2022-08-04T11:46:41;40.70;1.00
3037;DHT22;1528;52.550;13.408;2022-08-04T11:49:32;40.90;1.00
3037;DHT22;1528;52.550;13.408;2022-08-04T11:52:21;40.80;1.00
3037;DHT22;1528;52.550;13.408;2022-08-04T11:55:10;41.40;1.00
3037;DHT22;1528;52.550;13.408;2022-08-04T11:57:57;41.90;1.00
3037;DHT22;1528;52.550;13.408;2022-08-04T12:00:51;41.70;1.00
3037;DHT22;1528;52.550;13.408;2022-08-04T12:03:52;41.10;1.00
3037;DHT22;1528;52.550;13.408;2022-08-04T12:06:47;40.80;1.00
3037;DHT22;1528;52.550;13.408;2022-08-04T12:09:46;41.00;1.00
3037;DHT22;1528;52.550;13.408;2022-08-04T12:12:37;42.30;1.00
3037;DHT22;1528;52.550;13.408;2022-08-04T12:15:28;44.40;1.00
3037;DHT22;1528;52.550;13.408;2022-08-04T12:18:20;46.50;1.00
3037;DHT22;1528;52.550;13.408;2022-08-04T12:21:12;48.50;1.00
3037;DHT22;1528;52.550;13.408;2022-08-04T12:24:04;50.80;1.00
3037;DHT22;1528;52.550;13.408;2022-08-04T12:26:57;52.80;1.00
3037;DHT22;1528;52.550;13.408;2022-08-04T12:29:46;54.30;1.00
3037;DHT22;1528;52.550;13.408;2022-08-04T12:32:38;55.40;1.00
3037;DHT22;1528;52.550;13.408;2022-08-04T12:35:32;57.00;1.00
3037;DHT22;1528;52.550;13.408;2022-08-04T12:38:24;56.50;1.00
3037;DHT22;1528;52.550;13.408;2022-08-04T12:41:15;58.20;1.00
3037;DHT22;1528;52.550;13.408;2022-08-04T12:44:11;58.90;1.00
3037;DHT22;1528;52.550;13.408;2022-08-04T12:47:02;59.20;1.00
3037;DHT22;1528;52.550;13.408;2022-08-04T12:49:53;58.40;1.00
3037;DHT22;1528;52.550;13.408;2022-08-04T12:52:43;57.90;1.00
3037;DHT22;1528;52.550;13.408;2022-08-04T12:55:34;57.40;1.00
3037;DHT22;1528;52.550;13.408;2022-08-04T12:58:26;57.80;1.00
3037;DHT22;1528;52.550;13.408;2022-08-04T13:01:21;58.20;1.00
3037;DHT22;1528;52.550;13.408;2022-08-04T13:04:17;59.00;1.00
3037;DHT22;1528;52.550;13.408;2022-08-04T13:07:09;58.80;1.00
3037;DHT22;1528;52.550;13.408;2022-08-04T13:10:00;57.40;1.00
3037;DHT22;1528;52.550;13.408;2022-08-04T13:12:56;54.60;1.00
3037;DHT22;1528;52.550;13.408;2022-08-04T13:15:55;53.10;1.00
3037;DHT22;1528;52.550;13.408;2022-08-04T13:18:49;52.00;1.00
3037;DHT22;1528;52.550;13.408;2022-08-04T13:21:42;51.30;1.00
3037;DHT22;1528;52.550;13.408;2022-08-04T13:24:32;51.00;1.00
3037;DHT22;1528;52.550;13.408;2022-08-04T13:27:21;50.50;1.00
3037;DHT22;1528;52.550;13.408;2022-08-04T13:30:10;51.00;1.00
3037;DHT22;1528;52.550;13.408;2022-08-04T13:33:00;50.90;1.00
3037;DHT22;1528;52.550;13.408;2022-08-04T13:35:52;50.90;1.00
3037;DHT22;1528;52.550;13.408;2022-08-04T13:38:45;51.30;1.00
3037;DHT22;1528;52.550;13.408;2022-08-04T13:41:34;49.70;1.00
3037;DHT22;1528;52.550;13.408;2022-08-04T13:44:24;49.50;1.00
3037;DHT22;1528;52.550;13.408;2022-08-04T13:47:18;50.80;1.00
3037;DHT22;1528;52.550;13.408;2022-08-04T13:50:10;52.80;1.00
3037;DHT22;1528;52.550;13.408;2022-08-04T13:53:01;54.60;1.00
3037;DHT22;1528;52.550;13.408;2022-08-04T13:55:57;56.80;1.00
3037;DHT22;1528;52.550;13.408;2022-08-04T13:58:47;57.40;1.00
3037;DHT22;1528;52.550;13.408;2022-08-04T14:01:39;58.50;1.00
3037;DHT22;1528;52.550;13.408;2022-08-04T14:04:28;60.10;1.00
3037;DHT22;1528;52.550;13.408;2022-08-04T14:07:19;59.60;1.00
3037;DHT22;1528;52.550;13.408;2022-08-04T14:10:13;56.80;1.00
3037;DHT22;1528;52.550;13.408;2022-08-04T14:13:04;55.20;1.00
3037;DHT22;1528;52.550;13.408;2022-08-04T14:15:54;55.30;1.00
3037;DHT22;1528;52.550;13.408;2022-08-04T14:18:43;57.20;1.00
3037;DHT22;1528;52.550;13.408;2022-08-04T14:21:35;58.30;1.00
3037;DHT22;1528;52.550;13.408;2022-08-04T14:24:26;58.80;1.00
3037;DHT22;1528;52.550;13.408;2022-08-04T14:27:17;59.60;1.00
3037;DHT22;1528;52.550;13.408;2022-08-04T14:30:06;59.90;1.00
3037;DHT22;1528;52.550;13.408;2022-08-04T14:33:00;60.30;1.00
3037;DHT22;1528;52.550;13.408;2022-08-04T14:35:57;61.10;1.00
3037;DHT22;1528;52.550;13.408;2022-08-04T14:38:49;61.20;1.00
3037;DHT22;1528;52.550;13.408;2022-08-04T14:41:46;62.90;1.00
3037;DHT22;1528;52.550;13.408;2022-08-04T14:44:52;65.10;1.00
3037;DHT22;1528;52.550;13.408;2022-08-04T14:47:43;65.50;1.00
3037;DHT22;1528;52.550;13.408;2022-08-04T14:50:37;65.70;1.00
3037;DHT22;1528;52.550;13.408;2022-08-04T14:53:26;66.80;1.00
3037;DHT22;1528;52.550;13.408;2022-08-04T14:56:16;67.70;1.00
3037;DHT22;1528;52.550;13.408;2022-08-04T14:59:07;67.50;1.00
3037;DHT22;1528;52.550;13.408;2022-08-04T15:01:58;68.30;1.00
3037;DHT22;1528;52.550;13.408;2022-08-04T15:04:47;68.20;1.00
3037;DHT22;1528;52.550;13.408;2022-08-04T15:07:36;67.80;1.00
3037;DHT22;1528;52.550;13.408;2022-08-04T15:10:25;67.50;1.00
3037;DHT22;1528;52.550;13.408;2022-08-04T15:13:13;65.80;1.00
3037;DHT22;1528;52.550;13.408;2022-08-04T15:16:02;65.40;1.00
3037;DHT22;1528;52.550;13.408;2022-08-04T15:18:53;64.40;1.00
3037;DHT22;1528;52.550;13.408;2022-08-04T15:21:41;61.70;1.00
3037;DHT22;1528;52.550;13.408;2022-08-04T15:24:28;57.10;1.00
3037;DHT22;1528;52.550;13.408;2022-08-04T15:27:16;53.70;1.00
3037;DHT22;1528;52.550;13.408;2022-08-04T15:30:07;51.50;1.00
3037;DHT22;1528;52.550;13.408;2022-08-04T15:33:00;50.00;1.00
3037;DHT22;1528;52.550;13.408;2022-08-04T15:35:53;49.00;1.00
3037;DHT22;1528;52.550;13.408;2022-08-04T15:38:51;47.80;1.00
3037;DHT22;1528;52.550;13.408;2022-08-04T15:41:49;47.30;1.00
3037;DHT22;1528;52.550;13.408;2022-08-04T15:48:27;46.00;1.00
3037;DHT22;1528;52.550;13.408;2022-08-04T15:51:25;45.00;1.00
3037;DHT22;1528;52.550;13.408;2022-08-04T15:54:22;44.00;1.00
3037;DHT22;1528;52.550;13.408;2022-08-04T15:57:11;43.20;1.00
3037;DHT22;1528;52.550;13.408;2022-08-04T16:00:03;42.60;1.00
3037;DHT22;1528;52.550;13.408;2022-08-04T16:02:52;42.40;1.00
3037;DHT22;1528;52.550;13.408;2022-08-04T16:05:40;41.90;1.00
3037;DHT22;1528;52.550;13.408;2022-08-04T16:08:57;41.70;1.00
3037;DHT22;1528;52.550;13.408;2022-08-04T16:11:46;41.10;1.00
3037;DHT22;1528;52.550;13.408;2022-08-04T16:14:35;40.80;1.00
3037;DHT22;1528;52.550;13.408;2022-08-04T16:17:24;40.80;1.00
3037;DHT22;1528;52.550;13.408;2022-08-04T16:20:14;40.40;1.00
3037;DHT22;1528;52.550;13.408;2022-08-04T16:23:18;40.10;1.00
3037;DHT22;1528;52.550;13.408;2022-08-04T16:26:12;39.90;1.00
3037;DHT22;1528;52.550;13.408;2022-08-04T16:29:01;40.00;1.00
3037;DHT22;1528;52.550;13.408;2022-08-04T16:32:15;39.90;1.00
3037;DHT22;1528;52.550;13.408;2022-08-04T16:35:05;40.00;1.00
3037;DHT22;1528;52.550;13.408;2022-08-04T16:38:14;39.70;1.00
3037;DHT22;1528;52.550;13.408;2022-08-04T16:41:02;39.60;1.00
3037;DHT22;1528;52.550;13.408;2022-08-04T16:44:31;39.50;1.00
3037;DHT22;1528;52.550;13.408;2022-08-04T16:50:59;39.10;1.00
3037;DHT22;1528;52.550;13.408;2022-08-04T16:53:49;38.80;1.00
3037;DHT22;1528;52.550;13.408;2022-08-04T16:56:39;38.60;1.00
3037;DHT22;1528;52.550;13.408;2022-08-04T16:59:30;38.50;1.00
3037;DHT22;1528;52.550;13.408;2022-08-04T17:02:23;38.40;1.00
3037;DHT22;1528;52.550;13.408;2022-08-04T17:05:21;38.20;1.00
3037;DHT22;1528;52.550;13.408;2022-08-04T17:08:10;38.10;1.00
3037;DHT22;1528;52.550;13.408;2022-08-04T17:10:59;37.90;1.00
3037;DHT22;1528;52.550;13.408;2022-08-04T17:13:48;37.80;1.00
3037;DHT22;1528;52.550;13.408;2022-08-04T17:16:39;37.60;1.00
3037;DHT22;1528;52.550;13.408;2022-08-04T17:19:28;37.30;1.00
3037;DHT22;1528;52.550;13.408;2022-08-04T17:22:17;37.20;1.00
3037;DHT22;1528;52.550;13.408;2022-08-04T17:25:08;37.00;1.00
3037;DHT22;1528;52.550;13.408;2022-08-04T17:28:02;36.80;1.00
3037;DHT22;1528;52.550;13.408;2022-08-04T17:30:50;36.70;1.00
3037;DHT22;1528;52.550;13.408;2022-08-04T17:33:45;36.60;1.00
3037;DHT22;1528;52.550;13.408;2022-08-04T17:36:34;36.50;1.00
3037;DHT22;1528;52.550;13.408;2022-08-04T17:39:24;36.40;1.00
3037;DHT22;1528;52.550;13.408;2022-08-04T17:42:27;36.20;1.00
3037;DHT22;1528;52.550;13.408;2022-08-04T17:45:17;36.10;1.00
3037;DHT22;1528;52.550;13.408;2022-08-04T17:48:13;36.00;1.00
3037;DHT22;1528;52.550;13.408;2022-08-04T17:51:14;35.80;1.00
3037;DHT22;1528;52.550;13.408;2022-08-04T17:54:04;35.60;1.00
3037;DHT22;1528;52.550;13.408;2022-08-04T17:56:53;35.50;1.00
3037;DHT22;1528;52.550;13.408;2022-08-04T17:59:42;35.30;1.00
3037;DHT22;1528;52.550;13.408;2022-08-04T18:02:31;35.20;1.00
3037;DHT22;1528;52.550;13.408;2022-08-04T18:05:27;35.00;1.00
3037;DHT22;1528;52.550;13.408;2022-08-04T18:08:20;34.70;1.00
3037;DHT22;1528;52.550;13.408;2022-08-04T18:11:18;34.60;1.00
3037;DHT22;1528;52.550;13.408;2022-08-04T18:14:06;34.40;1.00
3037;DHT22;1528;52.550;13.408;2022-08-04T18:16:55;34.20;1.00
3037;DHT22;1528;52.550;13.408;2022-08-04T18:19:52;34.00;1.00
3037;DHT22;1528;52.550;13.408;2022-08-04T18:22:41;33.60;1.00
3037;DHT22;1528;52.550;13.408;2022-08-04T18:25:31;33.40;1.00
3037;DHT22;1528;52.550;13.408;2022-08-04T18:28:20;33.20;1.00
3037;DHT22;1528;52.550;13.408;2022-08-04T18:31:10;33.10;1.00
3037;DHT22;1528;52.550;13.408;2022-08-04T18:33:59;33.00;1.00
3037;DHT22;1528;52.550;13.408;2022-08-04T18:36:47;32.80;1.00
3037;DHT22;1528;52.550;13.408;2022-08-04T18:39:36;32.60;1.00
3037;DHT22;1528;52.550;13.408;2022-08-04T18:42:27;32.60;1.00
3037;DHT22;1528;52.550;13.408;2022-08-04T18:45:14;32.40;1.00
3037;DHT22;1528;52.550;13.408;2022-08-04T18:48:05;32.30;1.00
3037;DHT22;1528;52.550;13.408;2022-08-04T18:50:54;32.20;1.00
3037;DHT22;1528;52.550;13.408;2022-08-04T18:53:42;32.10;1.00
3037;DHT22;1528;52.550;13.408;2022-08-04T18:56:32;31.90;1.00
3037;DHT22;1528;52.550;13.408;2022-08-04T18:59:23;31.80;1.00
3037;DHT22;1528;52.550;13.408;2022-08-04T19:02:12;31.70;1.00
3037;DHT22;1528;52.550;13.408;2022-08-04T19:05:01;31.50;1.00
3037;DHT22;1528;52.550;13.408;2022-08-04T19:07:50;31.40;1.00
3037;DHT22;1528;52.550;13.408;2022-08-04T19:10:38;31.30;1.00
3037;DHT22;1528;52.550;13.408;2022-08-04T19:13:26;31.20;1.00
3037;DHT22;1528;52.550;13.408;2022-08-04T19:16:18;31.00;1.00
3037;DHT22;1528;52.550;13.408;2022-08-04T19:19:07;31.00;1.00
3037;DHT22;1528;52.550;13.408;2022-08-04T19:21:56;30.90;1.00
3037;DHT22;1528;52.550;13.408;2022-08-04T19:24:45;30.80;1.00
3037;DHT22;1528;52.550;13.408;2022-08-04T19:27:33;30.80;1.00
3037;DHT22;1528;52.550;13.408;2022-08-04T19:30:22;30.70;1.00
3037;DHT22;1528;52.550;13.408;2022-08-04T19:33:12;30.60;1.00
3037;DHT22;1528;52.550;13.408;2022-08-04T19:36:01;30.50;1.00
3037;DHT22;1528;52.550;13.408;2022-08-04T19:38:50;30.40;1.00